createdAt,value
2023-03-19T00:00:43.446Z,88.19
2023-03-19T00:03:10.581Z,87.25
2023-03-19T00:05:37.606Z,87.32
2023-03-19T00:08:04.778Z,87.45
2023-03-19T00:10:31.515Z,87.79
2023-03-19T00:12:58.252Z,87.03
2023-03-19T00:15:24.959Z,88.50
2023-03-19T00:17:51.798Z,89.04
2023-03-19T00:20:19.916Z,88.18
2023-03-19T00:22:46.741Z,87.61
2023-03-19T00:25:13.816Z,87.31
2023-03-19T00:27:40.610Z,87.97
2023-03-19T00:30:09.115Z,87.46
2023-03-19T00:32:36.992Z,86.74
2023-03-19T00:35:06.603Z,87.20
2023-03-19T00:37:34.531Z,87.43
2023-03-19T00:40:01.878Z,88.46
2023-03-19T00:42:28.672Z,87.78
2023-03-19T00:44:55.925Z,88.38
2023-03-19T00:47:23.400Z,88.58
2023-03-19T00:49:50.175Z,89.72
2023-03-19T00:52:17.054Z,90.63
2023-03-19T00:54:43.897Z,90.63
2023-03-19T00:57:10.992Z,90.70
2023-03-19T00:59:37.692Z,90.96
2023-03-19T01:02:04.903Z,90.91
2023-03-19T01:04:31.896Z,90.48
2023-03-19T01:09:25.665Z,90.42
2023-03-19T01:11:52.682Z,91.20
2023-03-19T01:14:19.576Z,90.54
2023-03-19T01:16:46.355Z,89.79
2023-03-19T01:19:13.721Z,90.12
2023-03-19T01:21:40.517Z,89.37
2023-03-19T01:24:07.264Z,89.67
2023-03-19T01:26:33.962Z,89.32
2023-03-19T01:29:00.864Z,88.84
2023-03-19T01:31:27.715Z,88.54
2023-03-19T01:33:54.491Z,87.69
2023-03-19T01:36:21.335Z,87.76
2023-03-19T01:38:48.271Z,88.23
2023-03-19T01:41:15.400Z,88.35
2023-03-19T01:43:42.208Z,88.40
2023-03-19T01:46:22.062Z,88.49
2023-03-19T01:48:52.225Z,87.67
2023-03-19T01:51:25.599Z,87.26
2023-03-19T01:53:58.204Z,87.80
2023-03-19T01:56:34.326Z,88.41
2023-03-19T01:59:09.812Z,87.75
2023-03-19T02:01:55.954Z,88.12
2023-03-19T02:04:25.155Z,89.33
2023-03-19T02:06:51.976Z,89.17
2023-03-19T02:09:19.708Z,89.57
2023-03-19T02:11:46.696Z,91.05
2023-03-19T02:14:13.541Z,90.99
2023-03-19T02:16:40.291Z,92.95
2023-03-19T02:19:14.020Z,92.79
2023-03-19T02:21:40.882Z,91.96
2023-03-19T02:24:21.609Z,92.53
2023-03-19T02:26:48.998Z,91.79
2023-03-19T02:29:15.865Z,93.25
2023-03-19T02:31:42.624Z,94.67
2023-03-19T02:34:24.100Z,96.48
2023-03-19T02:36:59.189Z,95.23
2023-03-19T02:39:36.385Z,94.63
2023-03-19T02:42:04.777Z,95.27
2023-03-19T02:44:31.776Z,95.43
2023-03-19T02:46:59.654Z,95.35
2023-03-19T02:49:26.573Z,94.59
2023-03-19T02:51:53.350Z,95.17
2023-03-19T02:54:20.077Z,95.58
2023-03-19T02:56:47.771Z,94.19
2023-03-19T02:59:14.721Z,94.92
2023-03-19T03:01:41.806Z,97.20
2023-03-19T03:04:08.922Z,98.33
2023-03-19T03:06:35.699Z,97.94
2023-03-19T03:09:02.428Z,97.08
2023-03-19T03:11:29.279Z,96.88
2023-03-19T03:13:56.552Z,96.21
2023-03-19T03:16:23.455Z,95.76
2023-03-19T03:18:50.293Z,97.75
2023-03-19T03:21:20.165Z,97.22
2023-03-19T03:23:48.636Z,98.71
2023-03-19T03:26:15.689Z,98.43
2023-03-19T03:28:42.492Z,97.85
2023-03-19T03:31:09.775Z,97.77
2023-03-19T03:33:36.864Z,98.38
2023-03-19T03:36:04.057Z,98.09
2023-03-19T03:38:32.723Z,98.41
2023-03-19T03:40:59.442Z,97.99
2023-03-19T03:43:26.401Z,98.57
2023-03-19T03:45:54.632Z,100.00
2023-03-19T03:48:22.040Z,100.00
2023-03-19T03:50:48.827Z,100.00
2023-03-19T03:53:16.074Z,99.70
2023-03-19T03:55:43.140Z,100.00
2023-03-19T03:58:10.214Z,99.28
2023-03-19T04:00:37.125Z,98.47
2023-03-19T04:03:03.966Z,99.12
2023-03-19T04:05:31.085Z,99.75
2023-03-19T04:07:58.624Z,99.77
2023-03-19T04:10:25.386Z,100.00
2023-03-19T04:12:52.146Z,100.00
2023-03-19T04:15:19.132Z,99.33
2023-03-19T04:17:46.250Z,99.56
2023-03-19T04:20:14.489Z,100.00
2023-03-19T04:22:41.780Z,99.64
2023-03-19T04:25:11.577Z,99.43
2023-03-19T04:27:38.348Z,98.97
2023-03-19T04:30:06.034Z,99.15
2023-03-19T04:32:33.718Z,99.62
2023-03-19T04:35:00.805Z,100.00
2023-03-19T04:37:27.861Z,100.00
2023-03-19T04:39:54.635Z,100.00
2023-03-19T04:42:21.801Z,100.00
2023-03-19T04:44:48.713Z,100.00
2023-03-19T04:47:15.607Z,100.00
2023-03-19T04:49:42.548Z,100.00
2023-03-19T04:52:09.570Z,100.00
2023-03-19T04:54:36.380Z,100.00
2023-03-19T04:57:03.127Z,100.00
2023-03-19T04:59:30.025Z,99.60
2023-03-19T05:01:56.867Z,100.00
2023-03-19T05:04:24.151Z,99.79
2023-03-19T05:06:51.285Z,100.00
2023-03-19T05:09:18.081Z,100.00
2023-03-19T05:11:44.841Z,100.00
2023-03-19T05:14:11.624Z,100.00
2023-03-19T05:16:38.911Z,100.00
2023-03-19T05:19:05.650Z,100.00
2023-03-19T05:21:32.799Z,100.00
2023-03-19T05:23:59.784Z,100.00
2023-03-19T05:26:26.672Z,100.00
2023-03-19T05:28:53.461Z,100.00
2023-03-19T05:31:20.231Z,100.00
2023-03-19T05:33:47.044Z,100.00
2023-03-19T05:36:13.820Z,100.00
2023-03-19T05:38:40.863Z,100.00
2023-03-19T05:41:08.358Z,100.00
2023-03-19T05:43:35.106Z,100.00
2023-03-19T05:46:02.136Z,100.00
2023-03-19T05:48:28.950Z,100.00
2023-03-19T05:50:56.334Z,100.00
2023-03-19T05:53:23.257Z,100.00
2023-03-19T05:55:50.003Z,100.00
2023-03-19T05:58:17.084Z,100.00
2023-03-19T06:00:44.075Z,100.00
2023-03-19T06:03:11.192Z,100.00
2023-03-19T06:05:38.588Z,100.00
2023-03-19T06:08:05.771Z,100.00
2023-03-19T06:10:35.473Z,100.00
2023-03-19T06:13:02.367Z,100.00
2023-03-19T06:15:29.113Z,100.00
2023-03-19T06:17:56.020Z,100.00
2023-03-19T06:20:22.763Z,100.00
2023-03-19T06:22:49.524Z,100.00
2023-03-19T06:25:16.682Z,100.00
2023-03-19T06:27:43.446Z,100.00
2023-03-19T06:30:10.979Z,100.00
2023-03-19T06:32:38.428Z,100.00
2023-03-19T06:35:06.567Z,100.00
2023-03-19T06:37:33.716Z,100.00
2023-03-19T06:40:00.656Z,100.00
2023-03-19T06:42:27.874Z,100.00
2023-03-19T06:44:54.594Z,100.00
2023-03-19T06:47:21.348Z,100.00
2023-03-19T06:49:48.154Z,100.00
2023-03-19T06:52:14.929Z,100.00
2023-03-19T06:54:41.692Z,100.00
2023-03-19T06:57:08.543Z,100.00
2023-03-19T06:59:35.287Z,100.00
2023-03-19T07:02:02.380Z,100.00
2023-03-19T07:04:30.412Z,100.00
2023-03-19T07:06:57.206Z,100.00
2023-03-19T07:09:24.060Z,100.00
2023-03-19T07:11:51.019Z,100.00
2023-03-19T07:14:17.744Z,100.00
2023-03-19T07:16:44.579Z,100.00
2023-03-19T07:19:11.717Z,100.00
2023-03-19T07:21:38.436Z,100.00
2023-03-19T07:24:05.485Z,100.00
2023-03-19T07:26:32.649Z,100.00
2023-03-19T07:28:59.465Z,100.00
2023-03-19T07:31:27.496Z,100.00
2023-03-19T07:33:54.263Z,100.00
2023-03-19T07:36:21.970Z,100.00
2023-03-19T07:38:48.678Z,100.00
2023-03-19T07:41:15.443Z,100.00
2023-03-19T07:43:46.826Z,100.00
2023-03-19T07:46:14.040Z,100.00
2023-03-19T07:48:42.334Z,100.00
2023-03-19T07:51:09.195Z,100.00
2023-03-19T07:53:37.466Z,100.00
2023-03-19T07:56:04.559Z,99.71
2023-03-19T07:58:31.356Z,99.40
2023-03-19T08:00:58.112Z,96.50
2023-03-19T08:03:24.990Z,93.09
2023-03-19T08:05:52.618Z,90.40
2023-03-19T08:08:19.606Z,88.00
2023-03-19T08:10:48.239Z,85.41
2023-03-19T08:13:15.019Z,83.44
2023-03-19T08:15:41.898Z,86.61
2023-03-19T08:18:09.139Z,82.93
2023-03-19T08:20:36.292Z,80.82
2023-03-19T08:23:03.357Z,81.89
2023-03-19T08:25:32.631Z,83.06
2023-03-19T08:28:02.085Z,82.37
2023-03-19T08:30:29.106Z,81.27
2023-03-19T08:32:55.902Z,83.17
2023-03-19T08:35:23.315Z,81.35
2023-03-19T08:37:50.109Z,79.51
2023-03-19T08:40:17.068Z,77.43
2023-03-19T08:42:45.214Z,75.05
2023-03-19T08:45:14.699Z,77.01
2023-03-19T08:47:42.482Z,76.94
2023-03-19T08:50:10.694Z,76.09
2023-03-19T08:52:37.605Z,75.38
2023-03-19T08:55:05.627Z,74.55
2023-03-19T08:57:32.501Z,74.38
2023-03-19T08:59:59.265Z,73.44
2023-03-19T09:02:26.073Z,73.65
2023-03-19T09:04:53.022Z,71.69
2023-03-19T09:07:19.924Z,70.27
2023-03-19T09:09:46.682Z,70.05
2023-03-19T09:12:16.869Z,68.88
2023-03-19T09:14:44.035Z,68.93
2023-03-19T09:17:11.673Z,69.57
2023-03-19T09:19:38.508Z,68.87
2023-03-19T09:22:06.202Z,69.35
2023-03-19T09:24:32.957Z,68.45
2023-03-19T09:26:59.735Z,67.08
2023-03-19T09:29:26.543Z,69.27
2023-03-19T09:31:53.317Z,69.49
2023-03-19T09:34:20.077Z,68.69
2023-03-19T09:36:46.863Z,69.24
2023-03-19T09:39:13.641Z,69.08
2023-03-19T09:42:34.070Z,68.15
2023-03-19T09:45:00.800Z,68.88
2023-03-19T09:47:33.407Z,68.00
2023-03-19T09:50:32.409Z,66.62
2023-03-19T09:53:20.342Z,68.10
2023-03-19T09:55:51.771Z,66.58
2023-03-19T09:58:37.041Z,66.92
2023-03-19T10:01:04.311Z,66.22
2023-03-19T10:03:58.425Z,66.34
2023-03-19T10:06:35.730Z,64.74
2023-03-19T10:09:33.839Z,64.37
2023-03-19T10:12:25.152Z,64.73
2023-03-19T10:17:33.193Z,62.10
2023-03-19T10:20:16.932Z,62.19
2023-03-19T10:22:51.840Z,61.87
2023-03-19T10:25:27.690Z,60.53
2023-03-19T10:28:10.654Z,61.25
2023-03-19T10:30:37.883Z,59.57
2023-03-19T10:33:24.127Z,60.88
2023-03-19T10:36:04.873Z,60.54
2023-03-19T10:38:33.755Z,59.23
2023-03-19T10:41:38.607Z,59.91
2023-03-19T10:44:12.681Z,59.20
2023-03-19T10:46:40.598Z,58.96
2023-03-19T10:49:15.240Z,57.97
2023-03-19T10:51:46.572Z,58.50
2023-03-19T10:54:22.753Z,58.27
2023-03-19T10:56:50.908Z,57.85
2023-03-19T10:59:32.192Z,56.98
2023-03-19T11:02:19.439Z,58.36
2023-03-19T11:04:46.958Z,57.67
2023-03-19T11:07:19.871Z,57.66
2023-03-19T11:09:51.700Z,58.04
2023-03-19T11:12:27.698Z,55.92
2023-03-19T11:14:57.630Z,55.55
2023-03-19T11:17:36.264Z,55.71
2023-03-19T11:20:22.637Z,55.13
2023-03-19T11:22:52.605Z,55.95
2023-03-19T11:25:52.032Z,56.69
2023-03-19T11:28:26.263Z,55.74
2023-03-19T11:31:19.916Z,55.37
2023-03-19T11:33:55.370Z,54.29
2023-03-19T11:36:31.854Z,54.20
2023-03-19T11:39:40.116Z,53.30
2023-03-19T11:42:21.890Z,55.03
2023-03-19T11:45:42.227Z,54.09
2023-03-19T11:48:15.670Z,54.80
2023-03-19T11:50:59.035Z,53.36
2023-03-19T11:53:38.372Z,54.56
2023-03-19T11:56:44.164Z,55.41
2023-03-19T11:59:35.679Z,53.53
2023-03-19T12:02:57.343Z,52.30
2023-03-19T12:05:35.832Z,52.17
2023-03-19T12:08:19.838Z,51.89
2023-03-19T12:11:12.881Z,52.08
2023-03-19T12:14:45.873Z,51.73
2023-03-19T12:17:44.031Z,50.02
2023-03-19T12:20:35.198Z,49.51
2023-03-19T12:23:35.984Z,49.63
2023-03-19T12:26:10.378Z,50.14
2023-03-19T12:29:19.177Z,50.07
2023-03-19T12:32:18.184Z,49.39
2023-03-19T12:34:45.266Z,50.16
2023-03-19T12:37:18.053Z,49.25
2023-03-19T12:40:20.374Z,51.24
2023-03-19T12:42:47.224Z,49.08
2023-03-19T12:45:37.278Z,50.32
2023-03-19T12:49:01.106Z,49.87
2023-03-19T12:51:36.032Z,49.00
2023-03-19T12:54:19.215Z,48.79
2023-03-19T12:57:29.366Z,48.58
2023-03-19T13:00:22.876Z,49.44
2023-03-19T13:03:10.937Z,50.44
2023-03-19T13:05:50.077Z,50.86
2023-03-19T13:08:56.812Z,51.24
2023-03-19T13:11:53.881Z,49.49
2023-03-19T13:14:43.384Z,50.09
2023-03-19T13:17:28.876Z,48.43
2023-03-19T13:19:57.058Z,46.69
2023-03-19T13:22:31.993Z,47.55
2023-03-19T13:25:00.639Z,49.23
2023-03-19T13:27:32.917Z,45.63
2023-03-19T13:30:11.387Z,45.43
2023-03-19T13:33:06.304Z,45.21
2023-03-19T13:35:44.358Z,46.21
2023-03-19T13:38:14.248Z,43.74
2023-03-19T13:40:54.496Z,43.01
2023-03-19T13:43:30.434Z,43.48
2023-03-19T13:46:37.736Z,43.48
2023-03-19T13:49:33.718Z,43.05
2023-03-19T13:52:25.828Z,43.39
2023-03-19T13:54:57.837Z,43.78
2023-03-19T13:57:36.107Z,43.58
2023-03-19T14:00:43.376Z,43.77
2023-03-19T14:03:29.096Z,44.37
2023-03-19T14:05:57.985Z,45.44
2023-03-19T14:08:33.590Z,45.13
2023-03-19T14:11:02.985Z,45.12
2023-03-19T14:13:38.454Z,45.03
2023-03-19T14:16:18.028Z,44.92
2023-03-19T14:18:45.186Z,45.88
2023-03-19T14:21:21.349Z,45.57
2023-03-19T14:23:56.021Z,45.74
2023-03-19T14:26:29.497Z,46.67
2023-03-19T14:29:03.701Z,46.46
2023-03-19T14:31:33.789Z,46.26
2023-03-19T14:34:11.657Z,46.32
2023-03-19T14:36:44.929Z,45.69
2023-03-19T14:39:31.585Z,44.79
2023-03-19T14:42:41.334Z,45.47
2023-03-19T14:49:43.329Z,44.76
2023-03-19T14:52:21.443Z,45.66
2023-03-19T14:55:02.043Z,45.73
2023-03-19T14:57:34.917Z,46.00
2023-03-19T15:00:07.129Z,47.08
2023-03-19T15:02:46.948Z,47.91
2023-03-19T15:05:33.328Z,48.76
2023-03-19T15:08:07.086Z,49.77
2023-03-19T15:10:50.710Z,51.19
2023-03-19T15:14:01.145Z,52.51
2023-03-19T15:17:38.760Z,53.36
2023-03-19T15:20:21.983Z,54.39
2023-03-19T15:23:13.414Z,55.48
2023-03-19T15:25:52.698Z,55.64
2023-03-19T15:28:20.081Z,55.48
2023-03-19T15:31:03.399Z,56.19
2023-03-19T15:33:42.718Z,56.54
2023-03-19T15:36:17.307Z,57.01
2023-03-19T15:38:49.511Z,57.65
2023-03-19T15:41:18.070Z,57.54
2023-03-19T15:43:45.853Z,58.15
2023-03-19T15:46:16.574Z,58.12
2023-03-19T15:48:54.324Z,58.92
2023-03-19T15:51:23.565Z,58.85
2023-03-19T15:53:50.807Z,58.80
2023-03-19T15:56:20.545Z,59.12
2023-03-19T15:58:53.073Z,59.49
2023-03-19T16:01:21.563Z,59.79
2023-03-19T16:04:09.018Z,60.09
2023-03-19T16:06:39.835Z,59.80
2023-03-19T16:09:32.985Z,60.50
2023-03-19T16:12:01.385Z,59.72
2023-03-19T16:14:42.340Z,59.45
2023-03-19T16:17:17.889Z,59.72
2023-03-19T16:19:50.511Z,59.89
2023-03-19T16:22:23.547Z,60.75
2023-03-19T16:24:51.553Z,60.50
2023-03-19T16:27:22.290Z,60.03
2023-03-19T16:29:57.799Z,60.67
2023-03-19T16:32:27.769Z,60.86
2023-03-19T16:35:03.983Z,62.11
2023-03-19T16:37:48.913Z,62.46
2023-03-19T16:40:38.788Z,62.84
2023-03-19T16:43:18.741Z,64.21
2023-03-19T16:45:51.453Z,65.81
2023-03-19T16:48:18.842Z,66.48
2023-03-19T16:50:47.469Z,66.98
2023-03-19T16:53:27.460Z,68.41
2023-03-19T16:55:57.014Z,68.37
2023-03-19T16:58:29.591Z,68.39
2023-03-19T17:00:56.530Z,68.46
2023-03-19T17:03:23.798Z,69.10
2023-03-19T17:05:50.587Z,69.48
2023-03-19T17:09:26.594Z,70.98
2023-03-19T17:11:53.965Z,71.30
2023-03-19T17:14:22.054Z,71.61
2023-03-19T17:16:50.906Z,72.14
2023-03-19T17:19:23.941Z,72.33
2023-03-19T17:21:53.621Z,73.39
2023-03-19T17:24:34.502Z,73.12
2023-03-19T17:27:04.108Z,72.96
2023-03-19T17:29:31.836Z,71.85
2023-03-19T17:32:02.028Z,72.11
2023-03-19T17:34:31.963Z,74.10
2023-03-19T17:37:01.591Z,73.63
2023-03-19T17:39:32.917Z,72.98
2023-03-19T17:42:00.048Z,73.00
2023-03-19T17:44:28.053Z,74.07
2023-03-19T17:46:56.166Z,74.10
2023-03-19T17:49:29.005Z,73.77
2023-03-19T17:51:56.823Z,73.99
2023-03-19T17:54:25.896Z,74.40
2023-03-19T17:56:53.827Z,76.50
2023-03-19T17:59:21.039Z,78.42
2023-03-19T18:01:47.857Z,77.26
2023-03-19T18:04:18.669Z,75.89
2023-03-19T18:06:57.425Z,77.50
2023-03-19T18:09:28.609Z,78.61
2023-03-19T18:11:55.828Z,76.00
2023-03-19T18:14:22.581Z,76.96
2023-03-19T18:16:49.456Z,78.04
2023-03-19T18:19:23.051Z,77.86
2023-03-19T18:21:49.863Z,77.97
2023-03-19T18:24:16.736Z,79.63
2023-03-19T18:26:43.502Z,79.45
2023-03-19T18:29:10.448Z,79.77
2023-03-19T18:31:37.308Z,80.35
2023-03-19T18:34:08.753Z,79.94
2023-03-19T18:36:36.106Z,78.48
2023-03-19T18:39:03.621Z,78.36
2023-03-19T18:41:30.529Z,78.27
2023-03-19T18:43:57.328Z,78.11
2023-03-19T18:46:29.274Z,77.95
2023-03-19T18:49:01.217Z,78.20
2023-03-19T18:51:28.773Z,80.21
2023-03-19T18:53:56.817Z,81.62
2023-03-19T18:56:33.128Z,83.11
2023-03-19T18:59:00.980Z,84.52
2023-03-19T19:01:28.408Z,84.48
2023-03-19T19:03:55.694Z,84.63
2023-03-19T19:06:44.275Z,83.49
2023-03-19T19:09:13.129Z,84.86
2023-03-19T19:11:42.052Z,86.30
2023-03-19T19:14:18.995Z,87.08
2023-03-19T19:16:45.938Z,87.19
2023-03-19T19:19:23.252Z,87.25
2023-03-19T19:21:53.183Z,88.32
2023-03-19T19:24:21.284Z,88.06
2023-03-19T19:26:53.443Z,86.51
2023-03-19T19:29:29.569Z,87.40
2023-03-19T19:31:56.658Z,90.35
2023-03-19T19:34:23.750Z,89.74
2023-03-19T19:36:51.334Z,89.70
2023-03-19T19:39:18.504Z,89.96
2023-03-19T19:41:46.761Z,91.57
2023-03-19T19:44:21.050Z,91.86
2023-03-19T19:46:48.047Z,89.86
2023-03-19T19:49:15.553Z,89.59
2023-03-19T19:51:42.791Z,91.07
2023-03-19T19:54:09.575Z,91.69
2023-03-19T19:56:37.476Z,94.38
2023-03-19T19:59:06.934Z,95.10
2023-03-19T20:01:35.381Z,95.63
2023-03-19T20:04:04.159Z,96.27
2023-03-19T20:06:31.052Z,96.89
2023-03-19T20:08:57.820Z,96.99
2023-03-19T20:11:26.151Z,97.09
2023-03-19T20:13:55.896Z,95.55
2023-03-19T20:16:26.636Z,95.50
2023-03-19T20:18:54.895Z,95.04
2023-03-19T20:21:23.165Z,95.54
2023-03-19T20:23:53.173Z,96.02
2023-03-19T20:26:23.341Z,95.21
2023-03-19T20:28:51.212Z,94.02
2023-03-19T20:31:33.093Z,93.07
2023-03-19T20:33:59.958Z,93.78
2023-03-19T20:36:26.877Z,94.32
2023-03-19T20:38:54.148Z,93.87
2023-03-19T20:41:24.786Z,93.30
2023-03-19T20:43:52.183Z,93.25
2023-03-19T20:46:21.301Z,93.28
2023-03-19T20:48:49.236Z,93.01
2023-03-19T20:51:25.334Z,92.90
2023-03-19T20:53:52.975Z,93.40
2023-03-19T20:56:22.565Z,93.33
2023-03-19T20:58:49.659Z,94.16
2023-03-19T21:01:18.021Z,93.73
2023-03-19T21:03:44.809Z,93.91
2023-03-19T21:06:24.175Z,93.50
2023-03-19T21:09:02.070Z,94.06
2023-03-19T21:11:42.154Z,94.18
2023-03-19T21:14:18.486Z,94.60
2023-03-19T21:16:45.246Z,93.99
2023-03-19T21:19:12.743Z,94.40
2023-03-19T21:21:39.731Z,94.84
2023-03-19T21:24:20.953Z,95.27
2023-03-19T21:26:47.812Z,95.35
2023-03-19T21:29:24.284Z,96.43
2023-03-19T21:31:56.749Z,95.34
2023-03-19T21:34:23.585Z,95.66
2023-03-19T21:36:50.956Z,97.38
2023-03-19T21:39:17.975Z,98.86
2023-03-19T21:41:46.553Z,97.61
2023-03-19T21:44:18.543Z,99.04
2023-03-19T21:46:47.924Z,99.86
2023-03-19T21:49:15.394Z,100.00
2023-03-19T21:51:44.701Z,100.00
2023-03-19T21:54:11.555Z,100.00
2023-03-19T21:56:44.140Z,100.00
2023-03-19T21:59:23.087Z,99.47
2023-03-19T22:01:49.910Z,100.00
2023-03-19T22:04:19.197Z,99.23
2023-03-19T22:06:46.904Z,98.88
2023-03-19T22:09:13.686Z,99.91
2023-03-19T22:11:42.637Z,100.00
2023-03-19T22:14:38.617Z,100.00
2023-03-19T22:17:05.986Z,100.00
2023-03-19T22:19:32.864Z,100.00
2023-03-19T22:21:59.673Z,100.00
2023-03-19T22:24:26.458Z,100.00
2023-03-19T22:26:57.879Z,100.00
2023-03-19T22:29:25.729Z,100.00
2023-03-19T22:31:54.563Z,100.00
2023-03-19T22:34:25.676Z,100.00
2023-03-19T22:36:52.765Z,100.00
2023-03-19T22:39:19.536Z,100.00
2023-03-19T22:41:48.431Z,100.00
2023-03-19T22:44:37.805Z,100.00
2023-03-19T22:47:04.810Z,100.00
2023-03-19T22:49:31.801Z,100.00
2023-03-19T22:51:58.947Z,100.00
2023-03-19T22:54:26.355Z,100.00
2023-03-19T22:56:53.139Z,100.00
2023-03-19T22:59:20.494Z,100.00
2023-03-19T23:01:48.385Z,100.00
2023-03-19T23:04:24.917Z,100.00
2023-03-19T23:06:54.187Z,100.00
2023-03-19T23:09:27.333Z,100.00
2023-03-19T23:11:54.295Z,100.00
2023-03-19T23:14:29.528Z,100.00
2023-03-19T23:17:02.106Z,100.00
2023-03-19T23:19:38.532Z,100.00
2023-03-19T23:22:07.640Z,100.00
2023-03-19T23:24:34.837Z,100.00
2023-03-19T23:27:02.850Z,100.00
2023-03-19T23:29:41.052Z,100.00
2023-03-19T23:32:11.524Z,100.00
2023-03-19T23:34:55.688Z,100.00
2023-03-19T23:37:24.732Z,100.00
2023-03-19T23:39:51.925Z,100.00
2023-03-19T23:42:28.179Z,100.00
2023-03-19T23:44:58.573Z,100.00
2023-03-19T23:47:25.530Z,100.00
2023-03-19T23:49:52.364Z,100.00
2023-03-19T23:52:19.116Z,100.00
2023-03-19T23:54:46.748Z,100.00
2023-03-19T23:57:16.030Z,100.00
2023-03-19T23:59:45.505Z,100.00
